Time;durP1;ratioP1;P1;durP2;ratioP2;P2;SDS_P1;SDS_P2;PMS_P1;PMS_P2;Temp;Humidity;BMP_temperature;BMP_pressure;BME280_temperature;BME280_humidity;BME280_pressure;Samples;Min_cycle;Max_cycle;Signal;HPM_P1;HPM_P2
2024/01/01 00:00:16;;;;;;;122.40;91.10;;;7.70;99.90;;;;;;5071815;28;20114;-68
2024/01/01 00:02:42;;;;;;;89.28;59.92;;;7.80;99.90;;;;;;5072258;28;20066;-67
2024/01/01 00:05:08;;;;;;;85.97;63.65;;;7.90;99.90;;;;;;5072184;28;20043;-68
2024/01/01 00:07:34;;;;;;;119.13;88.07;;;7.80;99.90;;;;;;5069950;28;20230;-67
2024/01/01 00:10:00;;;;;;;81.07;58.67;;;7.80;99.90;;;;;;5071884;28;20044;-67
2024/01/01 00:12:27;;;;;;;80.50;64.00;;;7.90;99.90;;;;;;5088663;28;20134;-67
2024/01/01 00:14:53;;;;;;;56.50;36.70;;;7.90;99.90;;;;;;5089365;28;20024;-67
2024/01/01 00:17:18;;;;;;;53.97;34.25;;;7.90;99.90;;;;;;5089220;28;20054;-67
2024/01/01 00:19:44;;;;;;;58.00;39.45;;;7.90;99.90;;;;;;5070989;28;20067;-67
2024/01/01 00:22:10;;;;;;;51.88;30.80;;;7.90;99.90;;;;;;5088974;28;20142;-67
2024/01/01 00:24:36;;;;;;;34.10;19.98;;;7.90;99.90;;;;;;5076625;28;20327;-67
2024/01/01 00:27:02;;;;;;;41.45;26.20;;;7.90;99.90;;;;;;5088321;28;20044;-67
2024/01/01 00:29:28;;;;;;;42.05;26.30;;;7.90;99.90;;;;;;5087529;28;20039;-68
2024/01/01 00:31:54;;;;;;;34.97;24.00;;;7.80;99.90;;;;;;5074253;28;20059;-67
2024/01/01 00:34:21;;;;;;;39.88;25.10;;;7.80;99.90;;;;;;5070050;28;20031;-67
2024/01/01 00:36:48;;;;;;;45.00;27.95;;;7.80;99.90;;;;;;5091230;28;20460;-66
2024/01/01 00:39:15;;;;;;;46.63;29.92;;;7.90;99.90;;;;;;5090245;28;20044;-67
2024/01/01 00:41:40;;;;;;;55.97;35.08;;;7.80;99.90;;;;;;5088697;28;20067;-67
2024/01/01 00:44:06;;;;;;;48.17;31.38;;;7.90;99.90;;;;;;5087428;28;20598;-66
2024/01/01 00:46:32;;;;;;;45.50;29.67;;;7.90;99.90;;;;;;5086889;28;20051;-67
2024/01/01 00:48:58;;;;;;;45.08;30.98;;;8.00;99.90;;;;;;5053521;28;20050;-67
2024/01/01 00:51:24;;;;;;;49.90;30.98;;;7.90;99.90;;;;;;5070895;28;20039;-67
2024/01/01 00:53:51;;;;;;;44.88;28.00;;;8.00;99.90;;;;;;5125311;27;20507;-67
2024/01/01 00:56:17;;;;;;;49.90;29.98;;;8.00;99.90;;;;;;5107515;27;20043;-68
2024/01/01 00:58:43;;;;;;;47.83;32.75;;;8.00;99.90;;;;;;5075227;28;20252;-67
2024/01/01 01:01:09;;;;;;;47.13;31.60;;;7.90;99.90;;;;;;5075215;28;20223;-68
2024/01/01 01:03:35;;;;;;;41.58;30.35;;;7.90;99.90;;;;;;5074848;28;20042;-68
2024/01/01 01:06:03;;;;;;;56.10;38.47;;;7.90;99.90;;;;;;5075459;28;20047;-68
2024/01/01 01:08:28;;;;;;;46.03;29.98;;;7.90;99.90;;;;;;5075266;28;20132;-68
2024/01/01 01:10:55;;;;;;;41.80;25.50;;;7.90;99.90;;;;;;5075096;28;20134;-68
2024/01/01 01:13:20;;;;;;;45.80;26.10;;;7.90;99.90;;;;;;5091793;28;20042;-68
2024/01/01 01:15:46;;;;;;;44.85;30.98;;;7.90;99.90;;;;;;5057873;28;20035;-68
2024/01/01 01:18:12;;;;;;;52.75;36.20;;;8.00;99.90;;;;;;5091635;28;20057;-68
2024/01/01 01:20:38;;;;;;;43.90;29.77;;;8.00;99.90;;;;;;5075073;28;20036;-68
2024/01/01 01:23:04;;;;;;;46.05;30.88;;;8.00;99.90;;;;;;5074811;28;20036;-68
2024/01/01 01:25:31;;;;;;;46.95;31.00;;;8.00;99.90;;;;;;5091715;28;20043;-67
2024/01/01 01:27:57;;;;;;;45.83;29.90;;;7.90;99.90;;;;;;5074972;28;20112;-68
2024/01/01 01:30:23;;;;;;;49.47;33.72;;;8.00;99.90;;;;;;5091503;28;20071;-67
2024/01/01 01:32:49;;;;;;;50.85;35.33;;;8.00;99.90;;;;;;5091223;28;20100;-68
2024/01/01 01:35:16;;;;;;;50.05;34.47;;;7.90;99.90;;;;;;5092229;28;20051;-68
2024/01/01 01:37:43;;;;;;;52.25;35.22;;;7.90;99.90;;;;;;5075020;28;20039;-68
2024/01/01 01:40:10;;;;;;;49.25;33.72;;;7.90;99.90;;;;;;5091535;28;20051;-68
2024/01/01 01:42:35;;;;;;;56.25;35.17;;;7.80;99.90;;;;;;5074241;28;20040;-68
2024/01/01 01:45:02;;;;;;;61.22;39.33;;;7.90;99.90;;;;;;5057117;28;20446;-68
2024/01/01 01:47:28;;;;;;;62.15;42.15;;;7.90;99.90;;;;;;5091960;28;20392;-69
2024/01/01 01:49:54;;;;;;;66.13;44.20;;;7.80;99.90;;;;;;5074672;28;20274;-68
2024/01/01 01:52:21;;;;;;;54.85;38.13;;;7.90;99.90;;;;;;5057513;28;20540;-68
2024/01/01 01:54:51;;;;;;;60.92;43.65;;;8.00;99.90;;;;;;5057895;28;20043;-68
2024/01/01 01:57:17;;;;;;;51.88;35.83;;;8.00;99.90;;;;;;5090577;28;20043;-68
2024/01/01 01:59:44;;;;;;;45.47;31.00;;;8.00;99.90;;;;;;5093103;27;20093;-68
2024/01/01 02:02:14;;;;;;;42.40;31.52;;;8.10;99.90;;;;;;5078924;28;20131;-68
2024/01/01 02:04:40;;;;;;;44.90;29.23;;;8.10;99.90;;;;;;5061068;28;20566;-68
2024/01/01 02:07:06;;;;;;;45.78;29.05;;;8.20;99.90;;;;;;5090317;28;20893;-68
2024/01/01 02:09:32;;;;;;;43.22;28.33;;;8.20;99.90;;;;;;5073169;28;20043;-69
2024/01/01 02:11:58;;;;;;;45.25;29.67;;;8.20;99.90;;;;;;5089250;28;20039;-68
2024/01/01 02:14:24;;;;;;;43.50;29.08;;;8.20;99.90;;;;;;5072401;28;20447;-67
2024/01/01 02:16:50;;;;;;;42.13;25.58;;;8.30;99.90;;;;;;5089349;28;20184;-67
2024/01/01 02:19:19;;;;;;;41.45;27.63;;;8.30;99.90;;;;;;5073758;28;20369;-67
2024/01/01 02:21:46;;;;;;;46.92;31.98;;;8.30;99.90;;;;;;5072688;28;20032;-68
2024/01/01 02:24:12;;;;;;;51.35;33.88;;;8.40;99.90;;;;;;5089522;28;20047;-68
2024/01/01 02:26:38;;;;;;;48.25;33.60;;;8.40;99.90;;;;;;5072540;28;20070;-67
2024/01/01 02:29:05;;;;;;;43.97;27.75;;;8.40;99.90;;;;;;5072525;28;20047;-67
2024/01/01 02:31:30;;;;;;;42.95;28.88;;;8.40;99.90;;;;;;5072997;28;20032;-67
2024/01/01 02:33:56;;;;;;;38.05;25.92;;;8.50;99.90;;;;;;5055771;28;20171;-68
2024/01/01 02:36:24;;;;;;;41.55;26.65;;;8.40;99.90;;;;;;5055061;28;20500;-68
2024/01/01 02:38:49;;;;;;;38.65;25.35;;;8.50;99.90;;;;;;5090123;28;20130;-68
2024/01/01 02:41:15;;;;;;;41.85;25.30;;;8.50;99.90;;;;;;5072569;28;20333;-68
2024/01/01 02:43:41;;;;;;;40.78;26.48;;;8.50;99.90;;;;;;5088738;28;20390;-68
2024/01/01 02:46:07;;;;;;;36.10;25.02;;;8.40;99.90;;;;;;5054824;28;20518;-68
2024/01/01 02:48:32;;;;;;;40.60;26.67;;;8.40;99.90;;;;;;5073381;28;20075;-68
2024/01/01 02:50:58;;;;;;;30.13;19.30;;;8.40;99.90;;;;;;5093790;27;20043;-68
2024/01/01 02:53:24;;;;;;;42.30;28.65;;;8.40;99.90;;;;;;5089226;28;20124;-68
2024/01/01 02:55:50;;;;;;;36.90;25.08;;;8.40;99.90;;;;;;5089222;28;20512;-68
2024/01/01 02:58:16;;;;;;;37.03;24.60;;;8.40;99.90;;;;;;5089111;28;20036;-68
2024/01/01 03:00:41;;;;;;;41.10;26.88;;;8.50;99.90;;;;;;5072305;28;20535;-68
2024/01/01 03:03:07;;;;;;;41.10;27.48;;;8.40;99.90;;;;;;5072985;28;20027;-67
2024/01/01 03:05:33;;;;;;;38.67;27.08;;;8.40;99.90;;;;;;5088924;28;20169;-67
2024/01/01 03:07:59;;;;;;;38.08;26.92;;;8.40;99.90;;;;;;5054220;28;20409;-68
2024/01/01 03:10:25;;;;;;;36.70;27.08;;;8.40;99.90;;;;;;5088487;28;20448;-68
2024/01/01 03:12:50;;;;;;;33.55;25.73;;;8.40;99.90;;;;;;5072523;28;20060;-68
2024/01/01 03:15:16;;;;;;;35.72;24.25;;;8.40;99.90;;;;;;5070845;28;20044;-67
2024/01/01 03:17:42;;;;;;;37.85;26.25;;;8.40;99.90;;;;;;5071864;28;20673;-67
2024/01/01 03:20:09;;;;;;;38.13;26.70;;;8.30;99.90;;;;;;5071389;28;20058;-67
2024/01/01 03:22:35;;;;;;;42.08;28.30;;;8.20;99.90;;;;;;5071962;28;20054;-67
2024/01/01 03:25:01;;;;;;;37.00;25.30;;;8.10;99.90;;;;;;5071630;28;20040;-68
2024/01/01 03:27:27;;;;;;;37.75;25.58;;;8.00;99.90;;;;;;5088467;28;20163;-67
2024/01/01 03:29:55;;;;;;;29.42;20.77;;;7.80;99.90;;;;;;5071752;28;20309;-67
2024/01/01 03:32:21;;;;;;;28.48;19.48;;;7.70;99.90;;;;;;5072383;28;20193;-68
2024/01/01 03:34:47;;;;;;;30.17;21.95;;;7.60;99.90;;;;;;5088097;28;20302;-69
2024/01/01 03:37:13;;;;;;;33.22;23.42;;;7.60;99.90;;;;;;5070946;28;20434;-68
2024/01/01 03:39:40;;;;;;;34.60;25.60;;;7.50;99.90;;;;;;5071262;28;20508;-68
2024/01/01 03:42:05;;;;;;;31.10;21.92;;;7.50;99.90;;;;;;5071068;28;20047;-69
2024/01/01 03:44:31;;;;;;;33.28;22.20;;;7.50;99.90;;;;;;5071206;28;20095;-68
2024/01/01 03:46:57;;;;;;;37.17;22.33;;;7.50;99.90;;;;;;5072079;28;20079;-68
2024/01/01 03:49:23;;;;;;;27.08;18.17;;;7.50;99.90;;;;;;5072690;28;20073;-68
2024/01/01 03:51:49;;;;;;;26.17;16.08;;;7.30;99.90;;;;;;5054080;28;20036;-68
2024/01/01 03:54:14;;;;;;;23.65;13.45;;;7.40;99.90;;;;;;5088156;28;20153;-68
2024/01/01 03:56:40;;;;;;;17.83;11.30;;;7.40;99.90;;;;;;5087923;28;20182;-68
2024/01/01 03:59:06;;;;;;;18.38;11.98;;;7.40;99.90;;;;;;5071396;28;20444;-68
2024/01/01 04:01:31;;;;;;;16.95;10.40;;;7.40;99.90;;;;;;5071842;28;20069;-68
2024/01/01 04:04:03;;;;;;;20.83;13.27;;;7.40;99.90;;;;;;5072764;28;20122;-68
2024/01/01 04:06:28;;;;;;;20.63;12.63;;;7.40;99.90;;;;;;5071415;28;20397;-68
2024/01/01 04:08:54;;;;;;;22.08;12.98;;;7.50;99.90;;;;;;5071349;28;20031;-68
2024/01/01 04:11:20;;;;;;;20.85;12.32;;;7.40;99.90;;;;;;5070960;28;20410;-68
2024/01/01 04:13:45;;;;;;;22.40;12.65;;;7.30;99.90;;;;;;5071374;28;20096;-68
2024/01/01 04:16:11;;;;;;;19.40;10.98;;;7.40;99.90;;;;;;5088257;28;20420;-69
2024/01/01 04:18:39;;;;;;;21.85;11.40;;;7.40;99.90;;;;;;5072202;28;20035;-69
2024/01/01 04:21:05;;;;;;;18.35;9.77;;;7.30;99.90;;;;;;5071389;28;20044;-69
2024/01/01 04:23:32;;;;;;;15.48;8.75;;;7.30;99.90;;;;;;5070940;28;20623;-69
2024/01/01 04:25:57;;;;;;;19.30;9.02;;;7.30;99.90;;;;;;5086789;28;20054;-68
2024/01/01 04:28:23;;;;;;;20.40;9.85;;;7.20;99.90;;;;;;5074199;28;20027;-69
2024/01/01 04:30:49;;;;;;;18.35;7.90;;;7.20;99.90;;;;;;5075644;28;20086;-68
2024/01/01 04:33:16;;;;;;;18.20;7.97;;;7.10;99.90;;;;;;5075742;28;20118;-68
2024/01/01 04:35:43;;;;;;;13.90;7.07;;;7.10;99.90;;;;;;5091314;28;20598;-68
2024/01/01 04:38:09;;;;;;;15.77;6.22;;;7.10;99.90;;;;;;5074647;28;20043;-68
2024/01/01 04:40:35;;;;;;;17.10;7.07;;;7.10;99.90;;;;;;5092084;28;20440;-68
2024/01/01 04:43:00;;;;;;;12.35;5.28;;;7.10;99.90;;;;;;5091521;28;20516;-68
2024/01/01 04:45:26;;;;;;;11.40;4.63;;;7.10;99.90;;;;;;5091513;28;20047;-67
2024/01/01 04:47:52;;;;;;;14.90;5.32;;;7.10;99.90;;;;;;5075226;28;20046;-68
2024/01/01 04:50:18;;;;;;;12.70;5.22;;;7.20;99.90;;;;;;5073951;28;20050;-68
2024/01/01 04:52:44;;;;;;;15.30;4.97;;;7.10;99.90;;;;;;5057678;28;20186;-68
2024/01/01 04:55:10;;;;;;;13.30;4.28;;;7.10;99.90;;;;;;5074686;28;20354;-68
2024/01/01 04:57:35;;;;;;;11.43;3.95;;;7.10;99.90;;;;;;5091903;28;20039;-68
2024/01/01 05:00:04;;;;;;;9.82;4.07;;;7.20;99.90;;;;;;5091789;28;20206;-68
2024/01/01 05:02:33;;;;;;;10.60;3.20;;;7.10;99.90;;;;;;5074072;28;20146;-69
2024/01/01 05:04:59;;;;;;;9.63;3.63;;;7.20;99.90;;;;;;5074366;28;20386;-68
2024/01/01 05:07:24;;;;;;;14.90;4.25;;;7.20;99.90;;;;;;5073679;28;20457;-68
2024/01/01 05:09:51;;;;;;;12.23;4.13;;;7.10;99.90;;;;;;5074907;28;20035;-68
2024/01/01 05:12:17;;;;;;;9.93;3.20;;;7.20;99.90;;;;;;5090888;28;20046;-68
2024/01/01 05:14:42;;;;;;;10.90;3.38;;;7.10;99.90;;;;;;5073909;28;20201;-67
2024/01/01 05:17:08;;;;;;;10.70;3.30;;;7.10;99.90;;;;;;5079521;28;20509;-67
2024/01/01 05:19:34;;;;;;;11.40;3.95;;;7.10;99.90;;;;;;5098592;28;20045;-69
2024/01/01 05:22:03;;;;;;;15.30;3.30;;;7.10;99.90;;;;;;5080637;28;20204;-68
2024/01/01 05:24:29;;;;;;;9.50;2.58;;;7.10;99.90;;;;;;5081064;28;20066;-68
2024/01/01 05:26:55;;;;;;;12.98;3.80;;;7.10;99.90;;;;;;5098793;28;20118;-67
2024/01/01 05:29:21;;;;;;;12.50;3.78;;;7.00;99.90;;;;;;5082042;28;20031;-67
2024/01/01 05:31:47;;;;;;;12.40;3.17;;;7.10;99.90;;;;;;5060838;28;20043;-67
2024/01/01 05:34:15;;;;;;;12.80;3.47;;;7.00;99.90;;;;;;5079789;28;20042;-67
2024/01/01 05:36:41;;;;;;;10.80;3.78;;;7.10;99.90;;;;;;5063148;28;20043;-67
2024/01/01 05:39:06;;;;;;;11.13;3.83;;;7.00;99.90;;;;;;5097143;28;20054;-66
2024/01/01 05:41:32;;;;;;;13.57;3.80;;;7.00;99.90;;;;;;5079165;28;20108;-67
2024/01/01 05:43:58;;;;;;;15.90;3.67;;;7.00;99.90;;;;;;5099293;28;20043;-67
2024/01/01 05:46:24;;;;;;;11.40;3.20;;;7.00;99.90;;;;;;5101770;28;20603;-66
2024/01/01 05:48:49;;;;;;;10.38;3.33;;;7.10;99.90;;;;;;5096816;28;20379;-66
2024/01/01 05:51:16;;;;;;;12.43;3.17;;;7.00;99.90;;;;;;5081341;28;20258;-66
2024/01/01 05:53:42;;;;;;;12.73;3.50;;;7.00;99.90;;;;;;5099401;28;20051;-67
2024/01/01 05:56:08;;;;;;;12.13;3.30;;;7.00;99.90;;;;;;5083864;28;20043;-67
2024/01/01 05:58:33;;;;;;;16.23;3.42;;;6.90;99.90;;;;;;5068587;28;20051;-67
2024/01/01 06:00:59;;;;;;;16.05;3.80;;;7.00;99.90;;;;;;5103256;28;20054;-67
2024/01/01 06:03:25;;;;;;;11.90;2.80;;;6.90;99.90;;;;;;5086156;28;20154;-67
2024/01/01 06:05:51;;;;;;;10.10;2.67;;;7.00;99.90;;;;;;5102275;28;20090;-67
2024/01/01 06:08:17;;;;;;;10.50;2.75;;;7.00;99.90;;;;;;5101038;28;20652;-67
2024/01/01 06:10:43;;;;;;;8.52;2.60;;;7.00;99.90;;;;;;5067028;28;20043;-68
2024/01/01 06:13:08;;;;;;;14.20;3.13;;;6.90;99.90;;;;;;5067799;28;20095;-67
2024/01/01 06:15:34;;;;;;;11.02;2.63;;;7.00;99.90;;;;;;5085168;28;20115;-68
2024/01/01 06:18:00;;;;;;;11.20;2.63;;;7.00;99.90;;;;;;5067579;28;20039;-66
2024/01/01 06:20:26;;;;;;;12.43;3.13;;;6.90;99.90;;;;;;5098228;28;20047;-66
2024/01/01 06:22:52;;;;;;;13.95;2.88;;;7.10;99.90;;;;;;5080111;28;20413;-66
2024/01/01 06:25:17;;;;;;;7.97;2.25;;;7.00;99.90;;;;;;5062627;28;20059;-67
2024/01/01 06:27:43;;;;;;;11.93;2.83;;;6.90;99.90;;;;;;5100224;28;20074;-67
2024/01/01 06:30:09;;;;;;;9.77;1.73;;;7.10;99.90;;;;;;5097463;28;20097;-66
2024/01/01 06:32:35;;;;;;;8.27;2.05;;;7.00;99.90;;;;;;5097551;28;20039;-67
2024/01/01 06:35:01;;;;;;;11.95;2.80;;;6.90;99.90;;;;;;5060761;28;20044;-66
2024/01/01 06:37:26;;;;;;;12.50;2.95;;;7.00;99.90;;;;;;5077045;28;20128;-66
2024/01/01 06:39:52;;;;;;;13.55;3.08;;;7.20;99.90;;;;;;5058450;28;20039;-67
2024/01/01 06:42:18;;;;;;;6.97;2.13;;;7.10;99.90;;;;;;5093400;28;20228;-66
2024/01/01 06:44:44;;;;;;;17.48;2.60;;;7.20;99.90;;;;;;5094614;28;20046;-67
2024/01/01 06:47:10;;;;;;;14.15;2.83;;;7.20;99.90;;;;;;5080994;28;20063;-66
2024/01/01 06:49:36;;;;;;;13.98;2.35;;;7.30;99.90;;;;;;5078485;28;20116;-66
2024/01/01 06:52:03;;;;;;;10.50;2.85;;;7.30;99.90;;;;;;5095007;28;20032;-66
2024/01/01 06:54:29;;;;;;;14.57;2.92;;;7.00;99.90;;;;;;5094232;28;20512;-67
2024/01/01 06:56:55;;;;;;;10.70;2.28;;;7.10;99.90;;;;;;5093596;28;20242;-66
2024/01/01 06:59:27;;;;;;;11.88;2.40;;;7.20;99.90;;;;;;5075157;28;20101;-67
2024/01/01 07:01:53;;;;;;;10.93;2.83;;;7.10;99.90;;;;;;5092043;28;20035;-67
2024/01/01 07:04:18;;;;;;;9.25;1.75;;;7.30;99.90;;;;;;5058457;28;20601;-67
2024/01/01 07:06:44;;;;;;;9.65;1.92;;;7.20;99.90;;;;;;5074506;28;20445;-67
2024/01/01 07:09:10;;;;;;;13.20;2.20;;;7.20;99.90;;;;;;5091677;28;20046;-66
2024/01/01 07:11:36;;;;;;;8.05;1.77;;;7.10;99.90;;;;;;5074891;28;20046;-67
2024/01/01 07:14:03;;;;;;;9.82;2.13;;;7.20;99.90;;;;;;5075530;28;20031;-67
2024/01/01 07:16:28;;;;;;;8.88;1.83;;;7.20;99.90;;;;;;5126827;27;20043;-68
2024/01/01 07:18:55;;;;;;;10.00;2.10;;;7.10;99.90;;;;;;5092817;28;20046;-68
2024/01/01 07:21:21;;;;;;;12.27;2.80;;;7.30;99.90;;;;;;5058667;28;20047;-67
2024/01/01 07:23:46;;;;;;;14.05;3.00;;;7.40;99.90;;;;;;5092891;28;20039;-67
2024/01/01 07:26:12;;;;;;;11.45;2.65;;;7.20;99.90;;;;;;5076225;28;20188;-66
2024/01/01 07:28:38;;;;;;;10.93;2.30;;;7.20;99.90;;;;;;5076137;28;20074;-67
2024/01/01 07:31:04;;;;;;;12.40;2.58;;;7.50;99.90;;;;;;5076380;28;20066;-69
2024/01/01 07:33:32;;;;;;;16.17;3.17;;;7.30;99.90;;;;;;5092632;28;20047;-68
2024/01/01 07:35:57;;;;;;;13.98;3.20;;;7.10;99.90;;;;;;5074959;28;20517;-68
2024/01/01 07:38:23;;;;;;;11.23;2.58;;;7.40;99.90;;;;;;5073766;28;20104;-67
2024/01/01 07:40:49;;;;;;;9.55;1.92;;;7.30;99.90;;;;;;5091225;28;20098;-67
2024/01/01 07:43:15;;;;;;;12.18;2.38;;;7.10;99.90;;;;;;5090963;28;20458;-67
2024/01/01 07:45:41;;;;;;;10.85;2.72;;;7.50;99.90;;;;;;5090521;28;20316;-68
2024/01/01 07:48:09;;;;;;;9.73;2.33;;;7.50;99.90;;;;;;5091117;28;20047;-68
2024/01/01 07:50:35;;;;;;;17.30;2.92;;;7.50;99.90;;;;;;5092289;28;20078;-68
2024/01/01 07:53:01;;;;;;;14.20;2.42;;;7.10;99.90;;;;;;5079164;28;20432;-67
2024/01/01 07:55:27;;;;;;;14.52;2.72;;;7.10;99.90;;;;;;5090875;28;20040;-68
2024/01/01 07:57:53;;;;;;;13.43;3.13;;;7.20;99.90;;;;;;5090606;28;20299;-67
2024/01/01 08:00:21;;;;;;;12.48;2.60;;;7.30;99.90;;;;;;5074828;28;20051;-68
2024/01/01 08:02:47;;;;;;;10.20;2.08;;;7.40;99.90;;;;;;5078102;28;20051;-67
2024/01/01 08:05:13;;;;;;;7.93;1.52;;;7.30;99.90;;;;;;5066920;28;20040;-68
2024/01/01 08:07:40;;;;;;;8.27;1.40;;;7.30;99.90;;;;;;5093625;28;20040;-67
2024/01/01 08:10:07;;;;;;;8.13;1.40;;;7.40;99.90;;;;;;5125570;27;20031;-68
2024/01/01 08:12:32;;;;;;;5.60;0.93;;;7.00;99.90;;;;;;5092586;28;20723;-69
2024/01/01 08:14:59;;;;;;;8.52;1.00;;;7.30;99.90;;;;;;5077112;28;20039;-68
2024/01/01 08:17:24;;;;;;;5.70;0.60;;;7.10;99.90;;;;;;5077314;28;20455;-68
2024/01/01 08:19:50;;;;;;;6.63;0.70;;;6.80;99.90;;;;;;5077577;28;20629;-68
2024/01/01 08:22:16;;;;;;;5.13;0.50;;;6.90;99.90;;;;;;5075789;28;20175;-68
2024/01/01 08:24:42;;;;;;;3.35;0.40;;;6.80;99.90;;;;;;5092449;28;20742;-69
2024/01/01 08:27:08;;;;;;;3.55;0.32;;;6.80;99.90;;;;;;5075484;28;20062;-68
2024/01/01 08:29:33;;;;;;;2.60;0.30;;;7.10;99.90;;;;;;5056351;28;20062;-68
2024/01/01 08:32:00;;;;;;;6.03;0.40;;;6.70;99.90;;;;;;5084484;28;20032;-68
2024/01/01 08:34:28;;;;;;;4.15;0.38;;;6.80;99.90;;;;;;5073200;28;20653;-68
2024/01/01 08:36:54;;;;;;;3.55;0.30;;;6.70;99.90;;;;;;5090455;28;20043;-69
2024/01/01 08:39:20;;;;;;;1.83;0.20;;;6.50;99.90;;;;;;5074375;28;20378;-69
2024/01/01 08:41:46;;;;;;;3.40;0.20;;;6.90;99.90;;;;;;5057536;28;20610;-68
2024/01/01 08:44:12;;;;;;;3.45;0.30;;;6.80;99.90;;;;;;5091000;28;20113;-68
2024/01/01 08:46:37;;;;;;;2.67;0.30;;;6.70;99.90;;;;;;5074518;28;20048;-68
2024/01/01 08:49:03;;;;;;;2.35;0.30;;;6.70;99.90;;;;;;5091047;28;20528;-67
2024/01/01 08:51:29;;;;;;;2.50;0.20;;;6.50;99.90;;;;;;5074371;28;20127;-67
2024/01/01 08:53:55;;;;;;;3.10;0.20;;;6.90;99.90;;;;;;5094362;27;20036;-67
2024/01/01 08:56:21;;;;;;;3.33;0.30;;;6.50;99.90;;;;;;5061038;28;20515;-67
2024/01/01 08:58:48;;;;;;;6.00;0.52;;;6.70;99.90;;;;;;5075186;28;20035;-67
2024/01/01 09:01:13;;;;;;;2.85;0.47;;;6.70;99.90;;;;;;5090085;28;20040;-67
2024/01/01 09:03:39;;;;;;;4.55;0.68;;;6.70;99.90;;;;;;5074677;28;20088;-68
2024/01/01 09:06:05;;;;;;;4.82;0.52;;;6.80;99.90;;;;;;5091889;28;20048;-68
2024/01/01 09:08:31;;;;;;;7.00;0.40;;;7.00;99.90;;;;;;5092522;28;20075;-67
2024/01/01 09:10:57;;;;;;;8.15;1.00;;;6.60;99.90;;;;;;5075386;28;20036;-68
2024/01/01 09:13:23;;;;;;;6.05;0.75;;;6.60;99.90;;;;;;5091366;28;20356;-68
2024/01/01 09:15:49;;;;;;;5.47;0.70;;;6.90;99.90;;;;;;5075386;28;20352;-67
2024/01/01 09:18:15;;;;;;;6.95;1.08;;;7.10;99.90;;;;;;5091900;28;20092;-68
2024/01/01 09:20:41;;;;;;;7.05;0.80;;;7.20;99.90;;;;;;5075568;28;20574;-67
2024/01/01 09:23:07;;;;;;;6.05;0.80;;;7.00;99.90;;;;;;5075049;28;20182;-67
2024/01/01 09:25:40;;;;;;;4.90;0.50;;;6.90;99.90;;;;;;5057893;28;20054;-67
2024/01/01 09:28:06;;;;;;;7.13;0.80;;;7.00;99.90;;;;;;5091754;28;20096;-68
2024/01/01 09:30:32;;;;;;;6.47;0.73;;;7.10;99.90;;;;;;5094441;27;20111;-68
2024/01/01 09:32:58;;;;;;;6.28;0.65;;;7.20;99.90;;;;;;5079909;28;20040;-68
2024/01/01 09:35:24;;;;;;;5.20;0.40;;;7.00;99.90;;;;;;5058742;28;20047;-68
2024/01/01 09:37:52;;;;;;;3.55;0.32;;;7.30;99.90;;;;;;5093094;28;20417;-68
2024/01/01 09:40:20;;;;;;;4.43;0.40;;;6.80;99.90;;;;;;5092667;28;20047;-69
2024/01/01 09:42:50;;;;;;;6.60;0.60;;;6.90;99.90;;;;;;5076792;28;20047;-69
2024/01/01 09:45:16;;;;;;;5.13;0.40;;;6.70;99.90;;;;;;5075938;28;20544;-68
2024/01/01 09:47:43;;;;;;;4.43;0.30;;;6.70;99.90;;;;;;5109256;27;20051;-68
2024/01/01 09:50:09;;;;;;;4.70;0.38;;;7.00;99.90;;;;;;5075013;28;20258;-69
2024/01/01 09:52:36;;;;;;;5.18;0.50;;;7.00;99.90;;;;;;5075644;28;20127;-69
2024/01/01 09:55:02;;;;;;;3.78;0.45;;;6.80;99.90;;;;;;5092315;28;20254;-68
2024/01/01 09:57:28;;;;;;;4.25;0.68;;;7.00;99.90;;;;;;5091680;28;20046;-67
2024/01/01 09:59:54;;;;;;;4.05;0.45;;;7.10;99.90;;;;;;5091906;28;20040;-68
2024/01/01 10:02:28;;;;;;;3.10;0.50;;;6.60;99.90;;;;;;5074427;28;20047;-67
2024/01/01 10:05:11;;;;;;;6.07;0.82;;;6.70;99.90;;;;;;5091434;28;20054;-67
2024/01/01 10:07:37;;;;;;;5.07;0.57;;;6.90;99.90;;;;;;5077581;28;20043;-68
2024/01/01 10:10:03;;;;;;;6.28;0.50;;;6.80;99.90;;;;;;5074167;28;20721;-68
2024/01/01 10:12:29;;;;;;;4.45;0.50;;;6.70;99.90;;;;;;5078067;28;20502;-68
2024/01/01 10:14:58;;;;;;;5.43;0.70;;;7.00;99.90;;;;;;5073826;28;20120;-68
2024/01/01 10:17:23;;;;;;;4.53;0.40;;;7.20;99.90;;;;;;5073863;28;20035;-68
2024/01/01 10:19:55;;;;;;;3.78;0.40;;;6.90;99.90;;;;;;5092841;28;20043;-68
2024/01/01 10:22:20;;;;;;;4.90;0.40;;;6.70;99.90;;;;;;5092148;28;20043;-68
2024/01/01 10:24:48;;;;;;;2.95;0.28;;;6.80;99.90;;;;;;5073161;28;20341;-67
2024/01/01 10:27:18;;;;;;;4.57;0.40;;;7.20;99.90;;;;;;5107297;27;20039;-68
2024/01/01 10:29:47;;;;;;;5.05;0.40;;;6.80;99.90;;;;;;5091805;28;20503;-67
2024/01/01 10:32:17;;;;;;;7.57;0.52;;;6.80;99.90;;;;;;5074458;28;20481;-69
2024/01/01 10:34:45;;;;;;;7.57;0.60;;;6.90;99.90;;;;;;5090666;28;20120;-68
2024/01/01 10:37:18;;;;;;;6.13;0.70;;;7.40;99.90;;;;;;5055568;28;20144;-67
2024/01/01 10:39:45;;;;;;;6.78;0.40;;;7.00;99.90;;;;;;5073794;28;20047;-67
2024/01/01 10:42:11;;;;;;;5.60;0.45;;;7.30;99.90;;;;;;5073674;28;20047;-68
2024/01/01 10:44:38;;;;;;;6.40;0.52;;;7.20;99.90;;;;;;5090734;28;20035;-67
2024/01/01 10:47:08;;;;;;;7.15;0.60;;;7.00;99.90;;;;;;5089429;28;20051;-68
2024/01/01 10:49:34;;;;;;;10.38;0.80;;;7.00;99.90;;;;;;5090991;28;20159;-68
2024/01/01 10:52:21;;;;;;;9.50;0.47;;;7.30;99.90;;;;;;5073609;28;20044;-68
2024/01/01 10:55:19;;;;;;;7.25;0.50;;;7.00;99.90;;;;;;5090973;28;20042;-68
2024/01/01 10:58:04;;;;;;;4.72;0.47;;;7.50;99.90;;;;;;5082288;28;20539;-68
2024/01/01 11:01:02;;;;;;;5.35;0.70;;;7.50;99.90;;;;;;5092741;27;20042;-67
2024/01/01 11:03:30;;;;;;;8.88;0.82;;;8.00;99.90;;;;;;5073685;28;20039;-67
2024/01/01 11:05:56;;;;;;;9.00;1.00;;;7.80;99.90;;;;;;5073798;28;20058;-68
2024/01/01 11:08:29;;;;;;;9.43;0.70;;;7.70;99.90;;;;;;5090338;28;20036;-69
2024/01/01 11:10:55;;;;;;;8.98;0.90;;;7.70;99.90;;;;;;5089759;28;20732;-67
2024/01/01 11:13:27;;;;;;;9.05;0.90;;;7.70;99.90;;;;;;5090434;28;20254;-68
2024/01/01 11:16:03;;;;;;;11.43;1.30;;;7.60;99.90;;;;;;5072466;28;20047;-68
2024/01/01 11:18:34;;;;;;;13.65;1.40;;;8.20;99.90;;;;;;5089939;28;20036;-68
2024/01/01 11:21:06;;;;;;;15.07;1.60;;;7.90;99.90;;;;;;5090180;28;20048;-68
2024/01/01 11:23:47;;;;;;;16.38;1.45;;;8.10;99.90;;;;;;5090204;28;20161;-68
2024/01/01 11:26:22;;;;;;;10.98;1.30;;;8.00;99.90;;;;;;5088648;28;20379;-68
2024/01/01 11:29:17;;;;;;;12.65;1.48;;;8.20;99.90;;;;;;5089474;28;20152;-68
2024/01/01 11:31:43;;;;;;;10.43;1.20;;;8.30;99.90;;;;;;5080675;28;20040;-69
2024/01/01 11:34:14;;;;;;;20.08;8.20;;;8.40;99.90;;;;;;5089244;28;20038;-68
2024/01/01 11:36:40;;;;;;;23.85;2.00;;;8.40;99.90;;;;;;5104950;27;20169;-68
2024/01/01 11:39:06;;;;;;;18.17;1.25;;;8.40;99.90;;;;;;5071741;28;20036;-68
2024/01/01 11:41:33;;;;;;;20.42;1.80;;;8.20;99.90;;;;;;5071342;28;20035;-69
2024/01/01 11:44:15;;;;;;;17.63;1.70;;;8.20;99.90;;;;;;5072883;28;20118;-69
2024/01/01 11:46:44;;;;;;;16.55;2.33;;;8.20;99.90;;;;;;5093049;27;20052;-68
2024/01/01 11:49:09;;;;;;;15.13;1.60;;;8.50;99.90;;;;;;5089084;28;20490;-68
2024/01/01 11:52:04;;;;;;;14.65;1.52;;;8.70;99.90;;;;;;5105910;28;20035;-68
2024/01/01 11:54:30;;;;;;;9.32;0.93;;;8.80;99.90;;;;;;5086464;28;20054;-68
2024/01/01 11:56:57;;;;;;;14.80;1.63;;;9.00;99.90;;;;;;5054274;28;20480;-68
2024/01/01 11:59:24;;;;;;;16.65;1.25;;;8.70;99.90;;;;;;5088640;28;20039;-68
2024/01/01 12:01:50;;;;;;;11.65;2.10;;;8.70;99.90;;;;;;5071584;28;20104;-69
2024/01/01 12:04:17;;;;;;;12.05;1.30;;;8.80;99.90;;;;;;5071244;28;20338;-68
2024/01/01 12:06:48;;;;;;;12.23;1.30;;;8.80;99.90;;;;;;5071861;28;20047;-69
2024/01/01 12:09:14;;;;;;;14.73;1.70;;;8.50;99.90;;;;;;5088827;28;20046;-69
2024/01/01 12:11:44;;;;;;;11.45;1.30;;;8.60;99.90;;;;;;5105194;28;20498;-70
2024/01/01 12:14:10;;;;;;;17.10;4.95;;;8.40;99.90;;;;;;5088278;28;20028;-69
2024/01/01 12:16:37;;;;;;;16.27;4.65;;;8.30;99.90;;;;;;5072607;28;20580;-69
2024/01/01 12:19:05;;;;;;;8.38;0.95;;;8.30;99.90;;;;;;5089494;28;20574;-68
2024/01/01 12:21:42;;;;;;;9.68;1.40;;;8.50;99.90;;;;;;5087928;28;20047;-68
2024/01/01 12:24:13;;;;;;;11.20;1.60;;;8.50;99.90;;;;;;5071673;28;20039;-68
2024/01/01 12:26:40;;;;;;;11.73;1.05;;;8.30;99.90;;;;;;5088573;28;20123;-68
2024/01/01 12:29:12;;;;;;;11.30;0.85;;;8.40;99.90;;;;;;5072680;28;20035;-69
2024/01/01 12:31:40;;;;;;;14.50;1.13;;;8.30;99.90;;;;;;5088245;28;20035;-71
2024/01/01 12:34:12;;;;;;;10.73;0.90;;;8.20;99.90;;;;;;5087540;28;20043;-68
2024/01/01 12:36:38;;;;;;;9.98;0.60;;;8.30;99.90;;;;;;5072803;28;20222;-69
2024/01/01 12:39:04;;;;;;;8.35;0.60;;;8.50;99.90;;;;;;5089460;28;20438;-69
2024/01/01 12:41:33;;;;;;;17.50;1.60;;;8.40;99.90;;;;;;5072583;28;20444;-69
2024/01/01 12:44:02;;;;;;;15.43;0.93;;;8.60;99.90;;;;;;5089599;28;20435;-69